Aviation Digital Data Service (ADDS)

Output produced by METARs form (0943 UTC 03 June 2015)
found at http://aviationweather.gov/adds/metars/
 
KIAH 030907Z 0309/0412 VRB03KT P6SM FEW060 SCT250 
     FM032200 14007KT P6SM SCT250